sensor_id;sensor_type;location;lat;lon;timestamp;P1;durP1;ratioP1;P2;durP2;ratioP2
5704;SDS011;2877;48.238;11.160;2024-03-29T00:00:52;0.90;;;0.90;;
5704;SDS011;2877;48.238;11.160;2024-03-29T00:03:18;0.77;;;0.77;;
5704;SDS011;2877;48.238;11.160;2024-03-29T00:05:43;0.60;;;0.60;;
5704;SDS011;2877;48.238;11.160;2024-03-29T00:08:09;0.80;;;0.80;;
5704;SDS011;2877;48.238;11.160;2024-03-29T00:10:35;0.57;;;0.57;;
5704;SDS011;2877;48.238;11.160;2024-03-29T00:13:01;0.60;;;0.60;;
5704;SDS011;2877;48.238;11.160;2024-03-29T00:15:26;0.80;;;0.80;;
5704;SDS011;2877;48.238;11.160;2024-03-29T00:17:52;0.80;;;0.70;;
5704;SDS011;2877;48.238;11.160;2024-03-29T00:20:17;0.67;;;0.67;;
5704;SDS011;2877;48.238;11.160;2024-03-29T00:22:45;2.10;;;0.80;;
5704;SDS011;2877;48.238;11.160;2024-03-29T00:25:10;0.70;;;0.70;;
5704;SDS011;2877;48.238;11.160;2024-03-29T00:27:36;0.70;;;0.70;;
5704;SDS011;2877;48.238;11.160;2024-03-29T00:30:01;0.50;;;0.50;;
5704;SDS011;2877;48.238;11.160;2024-03-29T00:32:27;0.60;;;0.60;;
5704;SDS011;2877;48.238;11.160;2024-03-29T00:34:53;0.60;;;0.60;;
5704;SDS011;2877;48.238;11.160;2024-03-29T00:37:19;0.50;;;0.50;;
5704;SDS011;2877;48.238;11.160;2024-03-29T00:39:45;0.50;;;0.50;;
5704;SDS011;2877;48.238;11.160;2024-03-29T00:42:10;0.70;;;0.60;;
5704;SDS011;2877;48.238;11.160;2024-03-29T00:44:40;0.50;;;0.50;;
5704;SDS011;2877;48.238;11.160;2024-03-29T00:47:07;0.50;;;0.50;;
5704;SDS011;2877;48.238;11.160;2024-03-29T00:49:33;0.70;;;0.70;;
5704;SDS011;2877;48.238;11.160;2024-03-29T00:51:59;1.70;;;0.70;;
5704;SDS011;2877;48.238;11.160;2024-03-29T00:54:25;0.50;;;0.40;;
5704;SDS011;2877;48.238;11.160;2024-03-29T00:56:50;0.60;;;0.60;;
5704;SDS011;2877;48.238;11.160;2024-03-29T00:59:16;0.57;;;0.53;;
5704;SDS011;2877;48.238;11.160;2024-03-29T01:01:42;0.60;;;0.50;;
5704;SDS011;2877;48.238;11.160;2024-03-29T01:04:08;0.50;;;0.50;;
5704;SDS011;2877;48.238;11.160;2024-03-29T01:06:34;0.60;;;0.50;;
5704;SDS011;2877;48.238;11.160;2024-03-29T01:09:00;0.70;;;0.60;;
5704;SDS011;2877;48.238;11.160;2024-03-29T01:11:25;0.60;;;0.60;;
5704;SDS011;2877;48.238;11.160;2024-03-29T01:13:51;0.40;;;0.40;;
5704;SDS011;2877;48.238;11.160;2024-03-29T01:16:17;0.40;;;0.40;;
5704;SDS011;2877;48.238;11.160;2024-03-29T01:18:43;0.30;;;0.30;;
5704;SDS011;2877;48.238;11.160;2024-03-29T01:21:09;0.60;;;0.50;;
5704;SDS011;2877;48.238;11.160;2024-03-29T01:23:34;0.50;;;0.50;;
5704;SDS011;2877;48.238;11.160;2024-03-29T01:26:00;0.50;;;0.50;;
5704;SDS011;2877;48.238;11.160;2024-03-29T01:28:26;0.77;;;0.60;;
5704;SDS011;2877;48.238;11.160;2024-03-29T01:30:52;0.33;;;0.33;;
5704;SDS011;2877;48.238;11.160;2024-03-29T01:33:18;0.40;;;0.40;;
5704;SDS011;2877;48.238;11.160;2024-03-29T01:35:43;0.50;;;0.50;;
5704;SDS011;2877;48.238;11.160;2024-03-29T01:38:09;0.57;;;0.57;;
5704;SDS011;2877;48.238;11.160;2024-03-29T01:40:35;0.40;;;0.40;;
5704;SDS011;2877;48.238;11.160;2024-03-29T01:43:00;0.40;;;0.40;;
5704;SDS011;2877;48.238;11.160;2024-03-29T01:45:26;0.60;;;0.40;;
5704;SDS011;2877;48.238;11.160;2024-03-29T01:47:52;0.50;;;0.50;;
5704;SDS011;2877;48.238;11.160;2024-03-29T01:50:18;0.50;;;0.50;;
5704;SDS011;2877;48.238;11.160;2024-03-29T01:52:44;0.40;;;0.40;;
5704;SDS011;2877;48.238;11.160;2024-03-29T01:55:10;0.60;;;0.50;;
5704;SDS011;2877;48.238;11.160;2024-03-29T01:57:36;0.40;;;0.40;;
5704;SDS011;2877;48.238;11.160;2024-03-29T02:00:02;1.50;;;0.47;;
5704;SDS011;2877;48.238;11.160;2024-03-29T02:02:30;0.40;;;0.40;;
5704;SDS011;2877;48.238;11.160;2024-03-29T02:04:57;0.50;;;0.50;;
5704;SDS011;2877;48.238;11.160;2024-03-29T02:07:23;0.77;;;0.50;;
5704;SDS011;2877;48.238;11.160;2024-03-29T02:09:49;0.40;;;0.40;;
5704;SDS011;2877;48.238;11.160;2024-03-29T02:12:14;0.60;;;0.60;;
5704;SDS011;2877;48.238;11.160;2024-03-29T02:14:40;0.50;;;0.50;;
5704;SDS011;2877;48.238;11.160;2024-03-29T02:17:07;0.50;;;0.50;;
5704;SDS011;2877;48.238;11.160;2024-03-29T02:19:33;0.50;;;0.50;;
5704;SDS011;2877;48.238;11.160;2024-03-29T02:21:59;0.40;;;0.40;;
5704;SDS011;2877;48.238;11.160;2024-03-29T02:24:26;0.50;;;0.50;;
5704;SDS011;2877;48.238;11.160;2024-03-29T02:26:53;0.60;;;0.60;;
5704;SDS011;2877;48.238;11.160;2024-03-29T02:29:21;0.73;;;0.50;;
5704;SDS011;2877;48.238;11.160;2024-03-29T02:31:46;0.83;;;0.50;;
5704;SDS011;2877;48.238;11.160;2024-03-29T02:34:12;0.40;;;0.40;;
5704;SDS011;2877;48.238;11.160;2024-03-29T02:36:38;0.53;;;0.40;;
5704;SDS011;2877;48.238;11.160;2024-03-29T02:39:03;3.30;;;0.40;;
5704;SDS011;2877;48.238;11.160;2024-03-29T02:41:29;0.60;;;0.60;;
5704;SDS011;2877;48.238;11.160;2024-03-29T02:43:55;0.40;;;0.40;;
5704;SDS011;2877;48.238;11.160;2024-03-29T02:46:21;0.50;;;0.50;;
5704;SDS011;2877;48.238;11.160;2024-03-29T02:48:47;0.30;;;0.30;;
5704;SDS011;2877;48.238;11.160;2024-03-29T02:51:12;0.50;;;0.50;;
5704;SDS011;2877;48.238;11.160;2024-03-29T02:53:38;0.40;;;0.40;;
5704;SDS011;2877;48.238;11.160;2024-03-29T02:56:04;0.40;;;0.40;;
5704;SDS011;2877;48.238;11.160;2024-03-29T02:58:32;0.30;;;0.30;;
5704;SDS011;2877;48.238;11.160;2024-03-29T03:01:05;0.40;;;0.40;;
5704;SDS011;2877;48.238;11.160;2024-03-29T03:03:34;0.50;;;0.50;;
5704;SDS011;2877;48.238;11.160;2024-03-29T03:06:00;0.40;;;0.40;;
5704;SDS011;2877;48.238;11.160;2024-03-29T03:08:27;0.83;;;0.40;;
5704;SDS011;2877;48.238;11.160;2024-03-29T03:11:12;0.43;;;0.43;;
5704;SDS011;2877;48.238;11.160;2024-03-29T03:13:38;0.37;;;0.37;;
5704;SDS011;2877;48.238;11.160;2024-03-29T03:16:04;2.77;;;0.67;;
5704;SDS011;2877;48.238;11.160;2024-03-29T03:18:29;0.40;;;0.40;;
5704;SDS011;2877;48.238;11.160;2024-03-29T03:20:55;0.63;;;0.50;;
5704;SDS011;2877;48.238;11.160;2024-03-29T03:23:25;0.30;;;0.30;;
5704;SDS011;2877;48.238;11.160;2024-03-29T03:26:00;0.40;;;0.40;;
5704;SDS011;2877;48.238;11.160;2024-03-29T03:28:30;0.40;;;0.40;;
5704;SDS011;2877;48.238;11.160;2024-03-29T03:30:56;0.57;;;0.43;;
5704;SDS011;2877;48.238;11.160;2024-03-29T03:33:22;0.30;;;0.30;;
5704;SDS011;2877;48.238;11.160;2024-03-29T03:35:48;0.40;;;0.40;;
5704;SDS011;2877;48.238;11.160;2024-03-29T03:38:13;0.40;;;0.40;;
5704;SDS011;2877;48.238;11.160;2024-03-29T03:40:40;0.50;;;0.50;;
5704;SDS011;2877;48.238;11.160;2024-03-29T03:43:06;0.40;;;0.40;;
5704;SDS011;2877;48.238;11.160;2024-03-29T03:45:35;0.40;;;0.40;;
5704;SDS011;2877;48.238;11.160;2024-03-29T03:48:02;0.30;;;0.30;;
5704;SDS011;2877;48.238;11.160;2024-03-29T03:50:29;0.40;;;0.40;;
5704;SDS011;2877;48.238;11.160;2024-03-29T03:52:54;0.40;;;0.40;;
5704;SDS011;2877;48.238;11.160;2024-03-29T03:55:20;0.63;;;0.40;;
5704;SDS011;2877;48.238;11.160;2024-03-29T03:57:45;0.40;;;0.40;;
5704;SDS011;2877;48.238;11.160;2024-03-29T04:00:11;0.70;;;0.40;;
5704;SDS011;2877;48.238;11.160;2024-03-29T04:02:37;0.40;;;0.40;;
5704;SDS011;2877;48.238;11.160;2024-03-29T04:05:03;0.40;;;0.40;;
5704;SDS011;2877;48.238;11.160;2024-03-29T04:07:29;0.40;;;0.40;;
5704;SDS011;2877;48.238;11.160;2024-03-29T04:09:54;0.50;;;0.50;;
5704;SDS011;2877;48.238;11.160;2024-03-29T04:12:20;4.53;;;0.40;;
5704;SDS011;2877;48.238;11.160;2024-03-29T04:14:45;0.37;;;0.37;;
5704;SDS011;2877;48.238;11.160;2024-03-29T04:17:11;0.40;;;0.40;;
5704;SDS011;2877;48.238;11.160;2024-03-29T04:19:37;0.50;;;0.50;;
5704;SDS011;2877;48.238;11.160;2024-03-29T04:22:02;0.40;;;0.40;;
5704;SDS011;2877;48.238;11.160;2024-03-29T04:24:28;0.40;;;0.40;;
5704;SDS011;2877;48.238;11.160;2024-03-29T04:26:54;0.40;;;0.40;;
5704;SDS011;2877;48.238;11.160;2024-03-29T04:29:19;0.40;;;0.40;;
5704;SDS011;2877;48.238;11.160;2024-03-29T04:31:45;0.30;;;0.30;;
5704;SDS011;2877;48.238;11.160;2024-03-29T04:34:11;0.40;;;0.30;;
5704;SDS011;2877;48.238;11.160;2024-03-29T04:36:36;0.50;;;0.50;;
5704;SDS011;2877;48.238;11.160;2024-03-29T04:39:02;0.40;;;0.40;;
5704;SDS011;2877;48.238;11.160;2024-03-29T04:41:27;0.40;;;0.40;;
5704;SDS011;2877;48.238;11.160;2024-03-29T04:43:53;0.73;;;0.43;;
5704;SDS011;2877;48.238;11.160;2024-03-29T04:46:19;0.50;;;0.50;;
5704;SDS011;2877;48.238;11.160;2024-03-29T04:48:44;0.40;;;0.40;;
5704;SDS011;2877;48.238;11.160;2024-03-29T04:51:13;0.40;;;0.40;;
5704;SDS011;2877;48.238;11.160;2024-03-29T04:53:39;0.50;;;0.50;;
5704;SDS011;2877;48.238;11.160;2024-03-29T04:56:04;0.30;;;0.30;;
5704;SDS011;2877;48.238;11.160;2024-03-29T04:58:30;0.40;;;0.40;;
5704;SDS011;2877;48.238;11.160;2024-03-29T05:00:56;0.73;;;0.50;;
5704;SDS011;2877;48.238;11.160;2024-03-29T05:03:22;1.80;;;0.40;;
5704;SDS011;2877;48.238;11.160;2024-03-29T05:05:51;2.50;;;0.30;;
5704;SDS011;2877;48.238;11.160;2024-03-29T05:08:17;0.43;;;0.43;;
5704;SDS011;2877;48.238;11.160;2024-03-29T05:10:44;0.40;;;0.40;;
5704;SDS011;2877;48.238;11.160;2024-03-29T05:13:10;0.30;;;0.30;;
5704;SDS011;2877;48.238;11.160;2024-03-29T05:15:36;0.30;;;0.30;;
5704;SDS011;2877;48.238;11.160;2024-03-29T05:18:02;1.80;;;0.40;;
5704;SDS011;2877;48.238;11.160;2024-03-29T05:20:28;0.47;;;0.47;;
5704;SDS011;2877;48.238;11.160;2024-03-29T05:22:54;0.30;;;0.30;;
5704;SDS011;2877;48.238;11.160;2024-03-29T05:25:19;0.40;;;0.40;;
5704;SDS011;2877;48.238;11.160;2024-03-29T05:27:45;0.50;;;0.40;;
5704;SDS011;2877;48.238;11.160;2024-03-29T05:30:11;0.40;;;0.40;;
5704;SDS011;2877;48.238;11.160;2024-03-29T05:32:38;0.40;;;0.40;;
5704;SDS011;2877;48.238;11.160;2024-03-29T05:35:03;0.30;;;0.30;;
5704;SDS011;2877;48.238;11.160;2024-03-29T05:37:29;0.43;;;0.43;;
5704;SDS011;2877;48.238;11.160;2024-03-29T05:39:55;0.40;;;0.40;;
5704;SDS011;2877;48.238;11.160;2024-03-29T05:42:29;0.30;;;0.30;;
5704;SDS011;2877;48.238;11.160;2024-03-29T05:44:56;4.53;;;0.40;;
5704;SDS011;2877;48.238;11.160;2024-03-29T05:47:22;0.30;;;0.30;;
5704;SDS011;2877;48.238;11.160;2024-03-29T05:49:48;0.30;;;0.30;;
5704;SDS011;2877;48.238;11.160;2024-03-29T05:52:14;0.47;;;0.47;;
5704;SDS011;2877;48.238;11.160;2024-03-29T05:54:40;0.30;;;0.30;;
5704;SDS011;2877;48.238;11.160;2024-03-29T05:57:06;0.40;;;0.40;;
5704;SDS011;2877;48.238;11.160;2024-03-29T05:59:33;0.47;;;0.40;;
5704;SDS011;2877;48.238;11.160;2024-03-29T06:01:59;0.30;;;0.30;;
5704;SDS011;2877;48.238;11.160;2024-03-29T06:04:24;0.30;;;0.30;;
5704;SDS011;2877;48.238;11.160;2024-03-29T06:06:57;0.40;;;0.40;;
5704;SDS011;2877;48.238;11.160;2024-03-29T06:09:25;0.37;;;0.37;;
5704;SDS011;2877;48.238;11.160;2024-03-29T06:11:52;0.40;;;0.40;;
5704;SDS011;2877;48.238;11.160;2024-03-29T06:14:20;0.50;;;0.40;;
5704;SDS011;2877;48.238;11.160;2024-03-29T06:17:05;0.30;;;0.30;;
5704;SDS011;2877;48.238;11.160;2024-03-29T06:19:52;0.60;;;0.40;;
5704;SDS011;2877;48.238;11.160;2024-03-29T06:22:22;0.50;;;0.50;;
5704;SDS011;2877;48.238;11.160;2024-03-29T06:24:49;0.40;;;0.40;;
5704;SDS011;2877;48.238;11.160;2024-03-29T06:27:17;0.33;;;0.33;;
5704;SDS011;2877;48.238;11.160;2024-03-29T06:29:43;0.50;;;0.50;;
5704;SDS011;2877;48.238;11.160;2024-03-29T06:32:09;0.40;;;0.40;;
5704;SDS011;2877;48.238;11.160;2024-03-29T06:34:34;0.50;;;0.50;;
5704;SDS011;2877;48.238;11.160;2024-03-29T06:37:00;0.47;;;0.47;;
5704;SDS011;2877;48.238;11.160;2024-03-29T06:39:26;0.40;;;0.40;;
5704;SDS011;2877;48.238;11.160;2024-03-29T06:41:52;0.47;;;0.47;;
5704;SDS011;2877;48.238;11.160;2024-03-29T06:44:17;0.40;;;0.40;;
5704;SDS011;2877;48.238;11.160;2024-03-29T06:46:43;0.50;;;0.50;;
5704;SDS011;2877;48.238;11.160;2024-03-29T06:49:08;1.07;;;0.40;;
5704;SDS011;2877;48.238;11.160;2024-03-29T06:51:34;0.30;;;0.30;;
5704;SDS011;2877;48.238;11.160;2024-03-29T06:54:00;1.53;;;0.50;;
5704;SDS011;2877;48.238;11.160;2024-03-29T06:56:25;0.40;;;0.40;;
5704;SDS011;2877;48.238;11.160;2024-03-29T06:58:51;0.40;;;0.40;;
5704;SDS011;2877;48.238;11.160;2024-03-29T07:01:16;0.40;;;0.40;;
5704;SDS011;2877;48.238;11.160;2024-03-29T07:03:42;0.40;;;0.40;;
5704;SDS011;2877;48.238;11.160;2024-03-29T07:06:08;0.40;;;0.40;;
5704;SDS011;2877;48.238;11.160;2024-03-29T07:08:33;0.30;;;0.30;;
5704;SDS011;2877;48.238;11.160;2024-03-29T07:10:59;0.50;;;0.50;;
5704;SDS011;2877;48.238;11.160;2024-03-29T07:13:28;0.50;;;0.50;;
5704;SDS011;2877;48.238;11.160;2024-03-29T07:15:54;0.40;;;0.40;;
5704;SDS011;2877;48.238;11.160;2024-03-29T07:18:20;0.50;;;0.50;;
5704;SDS011;2877;48.238;11.160;2024-03-29T07:20:46;0.50;;;0.50;;
5704;SDS011;2877;48.238;11.160;2024-03-29T07:23:11;0.60;;;0.60;;
5704;SDS011;2877;48.238;11.160;2024-03-29T07:25:37;0.50;;;0.50;;
5704;SDS011;2877;48.238;11.160;2024-03-29T07:28:03;2.73;;;0.50;;
5704;SDS011;2877;48.238;11.160;2024-03-29T07:30:29;0.50;;;0.50;;
5704;SDS011;2877;48.238;11.160;2024-03-29T07:32:54;1.63;;;0.50;;
5704;SDS011;2877;48.238;11.160;2024-03-29T07:35:20;0.50;;;0.50;;
5704;SDS011;2877;48.238;11.160;2024-03-29T07:37:46;0.50;;;0.50;;
5704;SDS011;2877;48.238;11.160;2024-03-29T07:40:14;0.50;;;0.50;;
5704;SDS011;2877;48.238;11.160;2024-03-29T07:42:40;1.17;;;0.60;;
5704;SDS011;2877;48.238;11.160;2024-03-29T07:45:05;0.40;;;0.40;;
5704;SDS011;2877;48.238;11.160;2024-03-29T07:47:32;1.37;;;0.50;;
5704;SDS011;2877;48.238;11.160;2024-03-29T07:49:57;0.40;;;0.40;;
5704;SDS011;2877;48.238;11.160;2024-03-29T07:52:23;0.40;;;0.40;;
5704;SDS011;2877;48.238;11.160;2024-03-29T07:54:48;0.50;;;0.50;;
5704;SDS011;2877;48.238;11.160;2024-03-29T07:57:14;0.50;;;0.50;;
5704;SDS011;2877;48.238;11.160;2024-03-29T07:59:41;1.00;;;0.57;;
5704;SDS011;2877;48.238;11.160;2024-03-29T08:02:06;3.57;;;0.53;;
5704;SDS011;2877;48.238;11.160;2024-03-29T08:04:32;0.50;;;0.50;;
5704;SDS011;2877;48.238;11.160;2024-03-29T08:06:58;0.40;;;0.40;;
5704;SDS011;2877;48.238;11.160;2024-03-29T08:09:23;1.07;;;0.50;;
5704;SDS011;2877;48.238;11.160;2024-03-29T08:11:50;0.40;;;0.40;;
5704;SDS011;2877;48.238;11.160;2024-03-29T08:14:15;0.60;;;0.57;;
5704;SDS011;2877;48.238;11.160;2024-03-29T08:16:41;0.50;;;0.50;;
5704;SDS011;2877;48.238;11.160;2024-03-29T08:19:07;0.50;;;0.50;;
5704;SDS011;2877;48.238;11.160;2024-03-29T08:21:33;0.50;;;0.50;;
5704;SDS011;2877;48.238;11.160;2024-03-29T08:23:58;0.70;;;0.60;;
5704;SDS011;2877;48.238;11.160;2024-03-29T08:26:25;0.63;;;0.60;;
5704;SDS011;2877;48.238;11.160;2024-03-29T08:28:53;0.70;;;0.50;;
5704;SDS011;2877;48.238;11.160;2024-03-29T08:31:19;0.50;;;0.50;;
5704;SDS011;2877;48.238;11.160;2024-03-29T08:33:44;0.40;;;0.40;;
5704;SDS011;2877;48.238;11.160;2024-03-29T08:36:10;0.77;;;0.77;;
5704;SDS011;2877;48.238;11.160;2024-03-29T08:38:37;0.70;;;0.70;;
5704;SDS011;2877;48.238;11.160;2024-03-29T08:41:06;1.13;;;0.67;;
5704;SDS011;2877;48.238;11.160;2024-03-29T08:43:32;0.70;;;0.70;;
5704;SDS011;2877;48.238;11.160;2024-03-29T08:45:58;0.60;;;0.60;;
5704;SDS011;2877;48.238;11.160;2024-03-29T08:48:24;0.70;;;0.70;;
5704;SDS011;2877;48.238;11.160;2024-03-29T08:50:52;0.63;;;0.50;;
5704;SDS011;2877;48.238;11.160;2024-03-29T08:53:17;1.90;;;0.77;;
5704;SDS011;2877;48.238;11.160;2024-03-29T08:55:45;1.30;;;0.77;;
5704;SDS011;2877;48.238;11.160;2024-03-29T08:58:13;0.67;;;0.67;;
5704;SDS011;2877;48.238;11.160;2024-03-29T09:00:39;0.50;;;0.50;;
5704;SDS011;2877;48.238;11.160;2024-03-29T09:03:04;1.10;;;0.50;;
5704;SDS011;2877;48.238;11.160;2024-03-29T09:05:30;2.00;;;0.50;;
5704;SDS011;2877;48.238;11.160;2024-03-29T09:07:56;0.60;;;0.60;;
5704;SDS011;2877;48.238;11.160;2024-03-29T09:10:22;1.80;;;0.60;;
5704;SDS011;2877;48.238;11.160;2024-03-29T09:12:49;0.60;;;0.60;;
5704;SDS011;2877;48.238;11.160;2024-03-29T09:15:15;0.70;;;0.70;;
5704;SDS011;2877;48.238;11.160;2024-03-29T09:17:41;1.43;;;0.67;;
5704;SDS011;2877;48.238;11.160;2024-03-29T09:20:07;1.03;;;0.80;;
5704;SDS011;2877;48.238;11.160;2024-03-29T09:22:34;0.80;;;0.80;;
5704;SDS011;2877;48.238;11.160;2024-03-29T09:24:59;0.70;;;0.60;;
5704;SDS011;2877;48.238;11.160;2024-03-29T09:27:26;0.90;;;0.90;;
5704;SDS011;2877;48.238;11.160;2024-03-29T09:29:52;1.20;;;0.77;;
5704;SDS011;2877;48.238;11.160;2024-03-29T09:32:18;2.67;;;0.73;;
5704;SDS011;2877;48.238;11.160;2024-03-29T09:34:45;0.70;;;0.70;;
5704;SDS011;2877;48.238;11.160;2024-03-29T09:37:10;0.70;;;0.70;;
5704;SDS011;2877;48.238;11.160;2024-03-29T09:39:36;1.53;;;0.97;;
5704;SDS011;2877;48.238;11.160;2024-03-29T09:42:02;1.50;;;0.80;;
5704;SDS011;2877;48.238;11.160;2024-03-29T09:44:32;1.00;;;0.90;;
5704;SDS011;2877;48.238;11.160;2024-03-29T09:47:03;1.10;;;0.80;;
5704;SDS011;2877;48.238;11.160;2024-03-29T09:49:32;0.80;;;0.80;;
5704;SDS011;2877;48.238;11.160;2024-03-29T09:51:59;0.80;;;0.80;;
5704;SDS011;2877;48.238;11.160;2024-03-29T09:54:28;0.77;;;0.77;;
5704;SDS011;2877;48.238;11.160;2024-03-29T09:56:55;0.70;;;0.70;;
5704;SDS011;2877;48.238;11.160;2024-03-29T09:59:22;2.20;;;0.97;;
5704;SDS011;2877;48.238;11.160;2024-03-29T10:01:48;0.70;;;0.70;;
5704;SDS011;2877;48.238;11.160;2024-03-29T10:04:16;1.77;;;1.03;;
5704;SDS011;2877;48.238;11.160;2024-03-29T10:06:44;0.80;;;0.80;;
5704;SDS011;2877;48.238;11.160;2024-03-29T10:09:12;3.63;;;0.83;;
5704;SDS011;2877;48.238;11.160;2024-03-29T10:11:38;1.07;;;0.70;;
5704;SDS011;2877;48.238;11.160;2024-03-29T10:14:04;0.80;;;0.80;;
5704;SDS011;2877;48.238;11.160;2024-03-29T10:16:30;0.80;;;0.80;;
5704;SDS011;2877;48.238;11.160;2024-03-29T10:18:58;2.30;;;0.80;;
5704;SDS011;2877;48.238;11.160;2024-03-29T10:21:27;0.60;;;0.60;;
5704;SDS011;2877;48.238;11.160;2024-03-29T10:23:52;0.53;;;0.53;;
5704;SDS011;2877;48.238;11.160;2024-03-29T10:26:18;0.80;;;0.80;;
5704;SDS011;2877;48.238;11.160;2024-03-29T10:28:46;2.00;;;0.80;;
5704;SDS011;2877;48.238;11.160;2024-03-29T10:31:12;1.23;;;0.70;;
5704;SDS011;2877;48.238;11.160;2024-03-29T10:33:39;2.20;;;0.80;;
5704;SDS011;2877;48.238;11.160;2024-03-29T10:36:07;0.70;;;0.70;;
5704;SDS011;2877;48.238;11.160;2024-03-29T10:38:34;0.83;;;0.83;;
5704;SDS011;2877;48.238;11.160;2024-03-29T10:41:01;1.43;;;0.70;;
5704;SDS011;2877;48.238;11.160;2024-03-29T10:43:28;0.70;;;0.70;;
5704;SDS011;2877;48.238;11.160;2024-03-29T10:45:55;0.70;;;0.70;;
5704;SDS011;2877;48.238;11.160;2024-03-29T10:48:24;0.57;;;0.57;;
5704;SDS011;2877;48.238;11.160;2024-03-29T10:50:56;0.93;;;0.80;;
5704;SDS011;2877;48.238;11.160;2024-03-29T10:53:23;1.27;;;0.50;;
5704;SDS011;2877;48.238;11.160;2024-03-29T10:55:58;0.63;;;0.63;;
5704;SDS011;2877;48.238;11.160;2024-03-29T10:58:25;0.80;;;0.80;;
5704;SDS011;2877;48.238;11.160;2024-03-29T11:00:56;0.70;;;0.70;;
5704;SDS011;2877;48.238;11.160;2024-03-29T11:03:32;0.60;;;0.60;;
5704;SDS011;2877;48.238;11.160;2024-03-29T11:06:09;1.50;;;1.00;;
5704;SDS011;2877;48.238;11.160;2024-03-29T11:08:38;0.63;;;0.63;;
5704;SDS011;2877;48.238;11.160;2024-03-29T11:11:10;1.40;;;0.80;;
5704;SDS011;2877;48.238;11.160;2024-03-29T11:13:38;0.80;;;0.80;;
5704;SDS011;2877;48.238;11.160;2024-03-29T11:16:18;0.70;;;0.70;;
5704;SDS011;2877;48.238;11.160;2024-03-29T11:18:45;2.10;;;0.80;;
5704;SDS011;2877;48.238;11.160;2024-03-29T11:21:14;1.57;;;0.80;;
5704;SDS011;2877;48.238;11.160;2024-03-29T11:23:47;0.73;;;0.73;;
5704;SDS011;2877;48.238;11.160;2024-03-29T11:26:18;0.80;;;0.80;;
5704;SDS011;2877;48.238;11.160;2024-03-29T11:28:48;1.50;;;1.00;;
5704;SDS011;2877;48.238;11.160;2024-03-29T11:31:14;1.00;;;0.90;;
5704;SDS011;2877;48.238;11.160;2024-03-29T11:36:13;0.80;;;0.80;;
5704;SDS011;2877;48.238;11.160;2024-03-29T11:38:49;4.40;;;0.80;;
5704;SDS011;2877;48.238;11.160;2024-03-29T11:41:22;1.63;;;1.10;;
5704;SDS011;2877;48.238;11.160;2024-03-29T11:43:50;1.00;;;1.00;;
5704;SDS011;2877;48.238;11.160;2024-03-29T11:46:16;1.50;;;1.07;;
5704;SDS011;2877;48.238;11.160;2024-03-29T11:48:43;1.43;;;0.87;;
5704;SDS011;2877;48.238;11.160;2024-03-29T11:51:12;1.20;;;1.10;;
5704;SDS011;2877;48.238;11.160;2024-03-29T11:53:39;0.90;;;0.90;;
5704;SDS011;2877;48.238;11.160;2024-03-29T11:56:05;1.87;;;1.00;;
5704;SDS011;2877;48.238;11.160;2024-03-29T11:58:32;1.43;;;1.00;;
5704;SDS011;2877;48.238;11.160;2024-03-29T12:00:59;2.80;;;0.90;;
5704;SDS011;2877;48.238;11.160;2024-03-29T12:03:26;2.07;;;1.17;;
5704;SDS011;2877;48.238;11.160;2024-03-29T12:05:54;1.00;;;0.90;;
5704;SDS011;2877;48.238;11.160;2024-03-29T12:08:23;1.00;;;1.00;;
5704;SDS011;2877;48.238;11.160;2024-03-29T12:10:51;0.80;;;0.80;;
5704;SDS011;2877;48.238;11.160;2024-03-29T12:13:17;1.27;;;0.90;;
5704;SDS011;2877;48.238;11.160;2024-03-29T12:15:43;0.93;;;0.90;;
5704;SDS011;2877;48.238;11.160;2024-03-29T12:18:09;1.20;;;0.90;;
5704;SDS011;2877;48.238;11.160;2024-03-29T12:20:36;0.90;;;0.90;;
5704;SDS011;2877;48.238;11.160;2024-03-29T12:23:03;1.10;;;1.00;;
5704;SDS011;2877;48.238;11.160;2024-03-29T12:25:31;1.83;;;0.90;;
5704;SDS011;2877;48.238;11.160;2024-03-29T12:27:58;0.73;;;0.73;;
5704;SDS011;2877;48.238;11.160;2024-03-29T12:30:24;1.03;;;0.90;;
5704;SDS011;2877;48.238;11.160;2024-03-29T12:33:00;1.47;;;0.97;;
5704;SDS011;2877;48.238;11.160;2024-03-29T12:35:26;1.37;;;0.90;;
5704;SDS011;2877;48.238;11.160;2024-03-29T12:37:53;0.63;;;0.63;;
5704;SDS011;2877;48.238;11.160;2024-03-29T12:40:19;1.47;;;0.77;;
5704;SDS011;2877;48.238;11.160;2024-03-29T12:42:51;2.00;;;0.80;;
5704;SDS011;2877;48.238;11.160;2024-03-29T12:45:17;1.47;;;0.80;;
5704;SDS011;2877;48.238;11.160;2024-03-29T12:47:44;1.93;;;0.70;;
5704;SDS011;2877;48.238;11.160;2024-03-29T12:50:12;1.47;;;1.00;;
5704;SDS011;2877;48.238;11.160;2024-03-29T12:52:44;2.40;;;0.73;;
5704;SDS011;2877;48.238;11.160;2024-03-29T12:55:09;1.07;;;1.00;;
5704;SDS011;2877;48.238;11.160;2024-03-29T12:57:35;3.03;;;0.90;;
5704;SDS011;2877;48.238;11.160;2024-03-29T13:00:02;1.23;;;0.90;;
5704;SDS011;2877;48.238;11.160;2024-03-29T13:02:33;1.03;;;0.80;;
5704;SDS011;2877;48.238;11.160;2024-03-29T13:05:05;1.43;;;0.70;;
5704;SDS011;2877;48.238;11.160;2024-03-29T13:07:32;1.20;;;1.00;;
5704;SDS011;2877;48.238;11.160;2024-03-29T13:10:02;1.27;;;0.80;;
5704;SDS011;2877;48.238;11.160;2024-03-29T13:12:31;3.03;;;0.90;;
5704;SDS011;2877;48.238;11.160;2024-03-29T13:15:02;0.90;;;0.80;;
5704;SDS011;2877;48.238;11.160;2024-03-29T13:17:39;1.43;;;0.90;;
5704;SDS011;2877;48.238;11.160;2024-03-29T13:20:04;0.87;;;0.80;;
5704;SDS011;2877;48.238;11.160;2024-03-29T13:22:30;1.30;;;0.70;;
5704;SDS011;2877;48.238;11.160;2024-03-29T13:24:56;0.90;;;0.67;;
5704;SDS011;2877;48.238;11.160;2024-03-29T13:27:21;1.90;;;0.90;;
5704;SDS011;2877;48.238;11.160;2024-03-29T13:29:47;0.77;;;0.77;;
5704;SDS011;2877;48.238;11.160;2024-03-29T13:32:12;2.10;;;0.70;;
5704;SDS011;2877;48.238;11.160;2024-03-29T13:34:38;1.40;;;0.90;;
5704;SDS011;2877;48.238;11.160;2024-03-29T13:37:03;0.70;;;0.70;;
5704;SDS011;2877;48.238;11.160;2024-03-29T13:39:29;0.70;;;0.70;;
5704;SDS011;2877;48.238;11.160;2024-03-29T13:41:55;0.73;;;0.73;;
5704;SDS011;2877;48.238;11.160;2024-03-29T13:44:20;1.37;;;0.67;;
5704;SDS011;2877;48.238;11.160;2024-03-29T13:46:46;0.70;;;0.70;;
5704;SDS011;2877;48.238;11.160;2024-03-29T13:49:11;1.97;;;0.97;;
5704;SDS011;2877;48.238;11.160;2024-03-29T13:51:38;1.80;;;0.70;;
5704;SDS011;2877;48.238;11.160;2024-03-29T13:54:03;0.70;;;0.70;;
5704;SDS011;2877;48.238;11.160;2024-03-29T13:56:29;1.43;;;0.70;;
5704;SDS011;2877;48.238;11.160;2024-03-29T13:58:55;0.70;;;0.70;;
5704;SDS011;2877;48.238;11.160;2024-03-29T14:01:20;0.60;;;0.50;;
5704;SDS011;2877;48.238;11.160;2024-03-29T14:03:46;1.90;;;0.50;;
5704;SDS011;2877;48.238;11.160;2024-03-29T14:06:11;1.00;;;0.50;;
5704;SDS011;2877;48.238;11.160;2024-03-29T14:08:37;0.40;;;0.40;;
5704;SDS011;2877;48.238;11.160;2024-03-29T14:11:03;0.40;;;0.40;;
5704;SDS011;2877;48.238;11.160;2024-03-29T14:13:28;0.40;;;0.40;;
5704;SDS011;2877;48.238;11.160;2024-03-29T14:15:54;0.57;;;0.40;;
5704;SDS011;2877;48.238;11.160;2024-03-29T14:18:20;1.90;;;0.40;;
5704;SDS011;2877;48.238;11.160;2024-03-29T14:20:46;0.50;;;0.40;;
5704;SDS011;2877;48.238;11.160;2024-03-29T14:23:12;0.40;;;0.40;;
5704;SDS011;2877;48.238;11.160;2024-03-29T14:25:40;0.40;;;0.40;;
5704;SDS011;2877;48.238;11.160;2024-03-29T14:28:05;0.40;;;0.40;;
5704;SDS011;2877;48.238;11.160;2024-03-29T14:30:31;0.30;;;0.30;;
5704;SDS011;2877;48.238;11.160;2024-03-29T14:32:57;0.30;;;0.30;;
5704;SDS011;2877;48.238;11.160;2024-03-29T14:35:26;0.40;;;0.40;;
5704;SDS011;2877;48.238;11.160;2024-03-29T14:37:54;0.53;;;0.40;;
5704;SDS011;2877;48.238;11.160;2024-03-29T14:40:19;0.40;;;0.40;;
5704;SDS011;2877;48.238;11.160;2024-03-29T14:42:45;0.70;;;0.40;;
5704;SDS011;2877;48.238;11.160;2024-03-29T14:45:10;0.40;;;0.40;;
5704;SDS011;2877;48.238;11.160;2024-03-29T14:47:38;0.50;;;0.40;;
5704;SDS011;2877;48.238;11.160;2024-03-29T14:50:04;0.47;;;0.30;;
5704;SDS011;2877;48.238;11.160;2024-03-29T14:52:33;1.30;;;0.50;;
5704;SDS011;2877;48.238;11.160;2024-03-29T14:55:02;0.70;;;0.40;;
5704;SDS011;2877;48.238;11.160;2024-03-29T14:57:29;0.40;;;0.40;;
5704;SDS011;2877;48.238;11.160;2024-03-29T14:59:54;0.50;;;0.40;;